Time;durP1;ratioP1;P1;durP2;ratioP2;P2;SDS_P1;SDS_P2;PMS_P1;PMS_P2;Temp;Humidity;BMP_temperature;BMP_pressure;BME280_temperature;BME280_humidity;BME280_pressure;Samples;Min_cycle;Max_cycle;Signal;HPM_P1;HPM_P2
2023/05/30 00:00:13;;;;;;;5.00;1.20;;;15.90;46.90;;;;;;5011124;28;20212;-73
2023/05/30 00:02:43;;;;;;;6.80;1.02;;;15.80;46.90;;;;;;5012175;28;20591;-73
2023/05/30 00:05:09;;;;;;;5.00;1.43;;;15.80;47.50;;;;;;5012661;28;20198;-74
2023/05/30 00:07:36;;;;;;;4.07;1.03;;;15.70;46.90;;;;;;5011869;28;20565;-73
2023/05/30 00:10:02;;;;;;;5.30;0.87;;;15.70;46.90;;;;;;5019213;28;20593;-74
2023/05/30 00:12:28;;;;;;;5.27;1.20;;;15.70;46.80;;;;;;5018513;28;20602;-73
2023/05/30 00:14:55;;;;;;;4.18;1.33;;;15.60;46.70;;;;;;5012525;28;20209;-73
2023/05/30 00:17:22;;;;;;;3.53;1.75;;;15.60;46.80;;;;;;5012017;28;20171;-74
2023/05/30 00:19:48;;;;;;;5.60;1.37;;;15.50;46.70;;;;;;5010846;28;20638;-73
2023/05/30 00:22:14;;;;;;;5.40;1.10;;;15.50;46.80;;;;;;5010715;28;20710;-73
2023/05/30 00:24:39;;;;;;;4.82;1.13;;;15.50;46.70;;;;;;5012072;28;20601;-73
2023/05/30 00:27:05;;;;;;;8.53;1.30;;;15.40;46.70;;;;;;4994694;28;20166;-74
2023/05/30 00:29:31;;;;;;;3.80;1.10;;;15.30;46.70;;;;;;5011982;28;20175;-73
2023/05/30 00:31:57;;;;;;;3.77;1.03;;;15.40;46.80;;;;;;5010391;28;20181;-73
2023/05/30 00:34:23;;;;;;;5.77;1.30;;;15.30;46.70;;;;;;5011459;28;20201;-73
2023/05/30 00:36:48;;;;;;;5.13;1.43;;;15.30;46.70;;;;;;5010914;28;20171;-73
2023/05/30 00:39:15;;;;;;;3.10;1.10;;;15.20;46.80;;;;;;5011677;28;20170;-72
2023/05/30 00:41:41;;;;;;;7.45;1.48;;;15.20;46.80;;;;;;5010284;28;20307;-73
2023/05/30 00:44:07;;;;;;;4.60;0.90;;;15.10;46.80;;;;;;5010114;28;20658;-73
2023/05/30 00:46:32;;;;;;;4.30;1.15;;;15.10;46.80;;;;;;5010698;28;20261;-73
2023/05/30 00:48:59;;;;;;;4.20;1.53;;;15.10;46.80;;;;;;5011943;28;20265;-73
2023/05/30 00:51:28;;;;;;;3.33;0.82;;;15.10;46.80;;;;;;5009749;28;20178;-73
2023/05/30 00:53:55;;;;;;;2.83;1.08;;;15.00;46.80;;;;;;5011836;28;20198;-73
2023/05/30 00:56:26;;;;;;;3.15;1.00;;;15.00;46.90;;;;;;4994557;28;20178;-74
2023/05/30 00:58:53;;;;;;;4.55;1.08;;;14.90;46.90;;;;;;5018694;28;20175;-73
2023/05/30 01:01:20;;;;;;;4.97;1.15;;;14.90;46.90;;;;;;5027504;28;20215;-74
2023/05/30 01:03:47;;;;;;;5.80;1.10;;;14.90;47.00;;;;;;5029732;28;20193;-73
2023/05/30 01:06:13;;;;;;;4.95;1.20;;;14.80;47.30;;;;;;5019089;28;20178;-73
2023/05/30 01:08:39;;;;;;;3.70;1.10;;;14.70;47.10;;;;;;5021914;28;20170;-74
2023/05/30 01:11:43;;;;;;;4.93;1.10;;;14.70;47.00;;;;;;4993182;28;20267;-73
2023/05/30 01:14:27;;;;;;;4.38;1.00;;;14.70;47.40;;;;;;4992990;28;20202;-73
2023/05/30 01:17:38;;;;;;;2.95;0.90;;;14.70;47.20;;;;;;5024844;28;20513;-74
2023/05/30 01:20:11;;;;;;;6.40;1.40;;;14.60;47.40;;;;;;5026483;28;20213;-74
2023/05/30 01:22:48;;;;;;;4.05;1.00;;;14.50;47.50;;;;;;5009661;28;20261;-73
2023/05/30 01:25:26;;;;;;;3.30;1.20;;;14.50;47.40;;;;;;5013988;28;20255;-73
2023/05/30 01:28:21;;;;;;;5.85;1.02;;;14.40;47.70;;;;;;5000435;28;20515;-73
2023/05/30 01:30:48;;;;;;;5.50;1.20;;;14.40;47.90;;;;;;4983949;28;20170;-73
2023/05/30 01:33:17;;;;;;;5.50;1.25;;;14.30;47.60;;;;;;5009415;28;20266;-73
2023/05/30 01:35:44;;;;;;;4.70;1.00;;;14.30;47.80;;;;;;5009740;28;20178;-73
2023/05/30 01:38:10;;;;;;;3.50;1.00;;;14.20;47.70;;;;;;5009559;28;20183;-73
2023/05/30 01:40:37;;;;;;;3.33;1.50;;;14.20;48.00;;;;;;4993353;28;20224;-73
2023/05/30 01:43:15;;;;;;;5.53;1.40;;;14.10;47.80;;;;;;4992379;28;20172;-73
2023/05/30 01:46:13;;;;;;;5.15;1.50;;;14.10;48.40;;;;;;4993412;28;20186;-73
2023/05/30 01:48:53;;;;;;;3.67;1.08;;;14.00;48.40;;;;;;5009646;28;20170;-73
2023/05/30 01:51:27;;;;;;;3.60;0.98;;;14.00;48.60;;;;;;4993258;28;20190;-73
2023/05/30 01:53:59;;;;;;;2.47;0.95;;;13.90;48.50;;;;;;5011650;28;20247;-73
2023/05/30 01:56:27;;;;;;;6.18;1.10;;;13.90;48.60;;;;;;4997200;28;20175;-73
2023/05/30 01:58:54;;;;;;;5.00;1.15;;;13.90;48.60;;;;;;4997293;28;20171;-73
2023/05/30 02:01:25;;;;;;;7.50;1.30;;;13.80;48.60;;;;;;5011555;28;20205;-73
2023/05/30 02:03:52;;;;;;;3.60;1.25;;;13.80;49.30;;;;;;5013792;28;20281;-73
2023/05/30 02:06:17;;;;;;;6.78;1.40;;;13.70;48.90;;;;;;4996877;28;20265;-73
2023/05/30 02:08:47;;;;;;;3.53;1.00;;;13.70;49.10;;;;;;4997249;28;20169;-74
2023/05/30 02:11:14;;;;;;;5.03;1.08;;;13.70;49.40;;;;;;5012582;28;20178;-73
2023/05/30 02:13:40;;;;;;;3.35;1.00;;;13.60;49.50;;;;;;4996744;28;20202;-73
2023/05/30 02:16:06;;;;;;;4.80;1.40;;;13.60;50.00;;;;;;5006500;28;20180;-73
2023/05/30 02:18:34;;;;;;;4.95;1.20;;;13.60;49.60;;;;;;4998139;28;20593;-73
2023/05/30 02:21:00;;;;;;;6.78;1.30;;;13.50;50.10;;;;;;4999817;28;20247;-73
2023/05/30 02:23:26;;;;;;;3.80;1.30;;;13.50;50.00;;;;;;5024320;28;20170;-73
2023/05/30 02:25:52;;;;;;;3.60;1.07;;;13.40;49.90;;;;;;5033043;28;20625;-73
2023/05/30 02:28:18;;;;;;;4.17;1.23;;;13.50;50.20;;;;;;5016113;28;20162;-74
2023/05/30 02:30:44;;;;;;;7.17;1.90;;;13.40;50.40;;;;;;5032507;28;20580;-73
2023/05/30 02:33:10;;;;;;;3.65;0.90;;;13.40;50.10;;;;;;5032532;28;20265;-73
2023/05/30 02:35:36;;;;;;;4.63;1.37;;;13.40;50.40;;;;;;5019528;28;20699;-74
2023/05/30 02:38:01;;;;;;;3.72;1.30;;;13.30;50.30;;;;;;4998112;28;20179;-74
2023/05/30 02:40:27;;;;;;;5.37;1.90;;;13.30;50.80;;;;;;4976957;28;20280;-73
2023/05/30 02:42:53;;;;;;;7.40;1.30;;;13.30;51.00;;;;;;4976599;28;20167;-73
2023/05/30 02:45:18;;;;;;;4.77;1.30;;;13.20;51.20;;;;;;4993383;28;20792;-74
2023/05/30 02:47:45;;;;;;;4.25;1.05;;;13.20;51.50;;;;;;4993280;28;20215;-73
2023/05/30 02:50:11;;;;;;;2.57;0.93;;;13.20;51.50;;;;;;4976421;28;20206;-74
2023/05/30 02:52:36;;;;;;;8.70;1.00;;;13.10;51.20;;;;;;4993069;28;20572;-74
2023/05/30 02:55:02;;;;;;;5.30;1.30;;;13.10;51.20;;;;;;4992662;28;20195;-73
2023/05/30 02:57:34;;;;;;;7.55;1.25;;;13.00;51.50;;;;;;4993127;28;20175;-73
2023/05/30 03:00:22;;;;;;;3.30;1.10;;;13.00;51.80;;;;;;4976034;28;20203;-73
2023/05/30 03:03:01;;;;;;;2.70;1.20;;;13.00;52.00;;;;;;4976713;28;20258;-73
2023/05/30 03:05:28;;;;;;;4.80;1.00;;;13.00;52.30;;;;;;4990949;28;20678;-73
2023/05/30 03:07:54;;;;;;;5.93;1.30;;;12.90;52.30;;;;;;4992832;28;20773;-73
2023/05/30 03:10:20;;;;;;;5.70;1.57;;;12.90;52.30;;;;;;4975831;28;20182;-73
2023/05/30 03:12:48;;;;;;;3.53;1.00;;;12.80;53.50;;;;;;4976301;28;20274;-73
2023/05/30 03:15:14;;;;;;;5.40;1.30;;;12.80;52.90;;;;;;4975991;28;20655;-73
2023/05/30 03:17:41;;;;;;;6.80;1.55;;;12.80;53.80;;;;;;4992790;28;20179;-73
2023/05/30 03:20:08;;;;;;;5.22;1.20;;;12.80;53.80;;;;;;4992356;28;20266;-73
2023/05/30 03:22:34;;;;;;;3.47;1.00;;;12.80;53.10;;;;;;4975905;28;20233;-73
2023/05/30 03:25:02;;;;;;;8.25;1.33;;;12.70;54.10;;;;;;4992668;28;20203;-73
2023/05/30 03:27:28;;;;;;;5.50;1.60;;;12.70;53.40;;;;;;4991840;28;20171;-73
2023/05/30 03:29:56;;;;;;;9.23;1.30;;;12.70;53.60;;;;;;4994355;28;20171;-73
2023/05/30 03:32:22;;;;;;;9.13;1.42;;;12.70;53.60;;;;;;5020569;28;20547;-74
2023/05/30 03:34:49;;;;;;;4.40;1.42;;;12.70;53.90;;;;;;5020992;28;20277;-73
2023/05/30 03:37:18;;;;;;;6.07;1.27;;;12.60;54.90;;;;;;5011656;28;20180;-73
2023/05/30 03:39:43;;;;;;;4.57;1.30;;;12.60;54.10;;;;;;5012914;28;20185;-73
2023/05/30 03:42:09;;;;;;;6.90;1.30;;;12.60;54.40;;;;;;4994891;28;20222;-73
2023/05/30 03:44:35;;;;;;;6.40;1.50;;;12.60;54.60;;;;;;5011806;28;20198;-73
2023/05/30 03:47:01;;;;;;;4.63;1.20;;;12.60;54.90;;;;;;5011735;28;20604;-74
2023/05/30 03:49:27;;;;;;;5.55;1.70;;;12.60;55.30;;;;;;5011204;28;20221;-73
2023/05/30 03:51:54;;;;;;;5.78;1.20;;;12.50;54.90;;;;;;5012635;28;20601;-75
2023/05/30 03:54:20;;;;;;;5.17;1.87;;;12.60;55.00;;;;;;5011325;28;20205;-75
2023/05/30 03:56:46;;;;;;;7.13;1.50;;;12.60;55.50;;;;;;4995253;28;20189;-75
2023/05/30 03:59:15;;;;;;;3.30;1.27;;;12.60;55.50;;;;;;5011060;28;20190;-75
2023/05/30 04:01:40;;;;;;;7.40;1.83;;;12.60;55.70;;;;;;5011036;28;20214;-75
2023/05/30 04:04:06;;;;;;;5.20;1.30;;;12.60;56.20;;;;;;4994732;28;20202;-75
2023/05/30 04:06:34;;;;;;;7.03;1.30;;;12.60;56.90;;;;;;5010870;28;20217;-75
2023/05/30 04:09:03;;;;;;;3.78;1.02;;;12.60;57.00;;;;;;5011281;28;20577;-75
2023/05/30 04:11:30;;;;;;;6.20;1.92;;;12.60;56.60;;;;;;5010940;28;20186;-75
2023/05/30 04:13:56;;;;;;;12.32;2.03;;;12.60;56.80;;;;;;4994538;28;20304;-75
2023/05/30 04:16:21;;;;;;;5.27;1.33;;;12.70;57.50;;;;;;4994083;28;20265;-75
2023/05/30 04:18:47;;;;;;;4.77;1.83;;;12.70;57.40;;;;;;5011282;28;20584;-75
2023/05/30 04:21:14;;;;;;;5.83;1.40;;;12.70;57.40;;;;;;5010263;28;20677;-76
2023/05/30 04:23:42;;;;;;;6.25;1.52;;;12.80;58.10;;;;;;5011087;28;20616;-75
2023/05/30 04:26:09;;;;;;;9.65;1.30;;;12.90;58.10;;;;;;4993767;28;20174;-75
2023/05/30 04:28:38;;;;;;;7.93;1.65;;;12.90;58.90;;;;;;5005431;28;20253;-76
2023/05/30 04:31:05;;;;;;;7.30;1.50;;;13.10;59.20;;;;;;5030114;28;20178;-75
2023/05/30 04:33:35;;;;;;;6.75;1.50;;;13.30;61.10;;;;;;5030720;28;20181;-75
2023/05/30 04:36:05;;;;;;;5.75;2.90;;;13.40;60.10;;;;;;4977708;28;20174;-75
2023/05/30 04:38:34;;;;;;;6.70;1.60;;;13.50;60.20;;;;;;5011040;28;20174;-75
2023/05/30 04:41:02;;;;;;;11.63;2.35;;;13.60;59.90;;;;;;4994202;28;20832;-75
2023/05/30 04:43:31;;;;;;;6.07;2.00;;;13.70;60.00;;;;;;5010395;28;20377;-75
2023/05/30 04:46:00;;;;;;;5.95;1.50;;;13.80;60.90;;;;;;5011025;28;20170;-75
2023/05/30 04:48:27;;;;;;;8.10;1.80;;;14.10;61.40;;;;;;5011273;28;20171;-75
2023/05/30 04:50:53;;;;;;;11.65;2.25;;;14.30;61.80;;;;;;5010450;28;20228;-75
2023/05/30 04:53:20;;;;;;;6.47;2.00;;;14.60;62.20;;;;;;4993671;28;20182;-75
2023/05/30 04:55:46;;;;;;;7.45;2.00;;;14.80;62.40;;;;;;5011908;28;20512;-75
2023/05/30 04:58:15;;;;;;;4.63;1.67;;;14.90;62.50;;;;;;4993871;28;20261;-75
2023/05/30 05:00:41;;;;;;;8.70;2.50;;;15.10;61.80;;;;;;5010224;28;20688;-75
2023/05/30 05:03:07;;;;;;;6.23;1.90;;;15.20;61.70;;;;;;5009846;28;20581;-76
2023/05/30 05:05:33;;;;;;;8.67;2.93;;;15.50;62.30;;;;;;4994219;28;20221;-75
2023/05/30 05:08:00;;;;;;;6.60;1.97;;;15.70;62.30;;;;;;5012029;28;20593;-75
2023/05/30 05:10:26;;;;;;;4.50;1.50;;;15.90;62.30;;;;;;5009883;28;20710;-75
2023/05/30 05:12:55;;;;;;;6.20;1.70;;;16.10;62.50;;;;;;5016556;28;20600;-76
2023/05/30 05:15:21;;;;;;;9.30;1.80;;;16.40;62.50;;;;;;5012255;28;20637;-75
2023/05/30 05:17:46;;;;;;;6.13;2.00;;;16.50;61.90;;;;;;4993897;28;20590;-75
2023/05/30 05:20:13;;;;;;;7.20;1.93;;;16.60;61.40;;;;;;5010733;28;20515;-75
2023/05/30 05:22:38;;;;;;;7.20;2.30;;;16.70;61.30;;;;;;5009876;28;20186;-76
2023/05/30 05:25:04;;;;;;;9.60;2.10;;;16.70;60.80;;;;;;5019046;28;20624;-75
2023/05/30 05:27:30;;;;;;;8.70;1.90;;;16.80;60.60;;;;;;5009129;28;20585;-76
2023/05/30 05:29:56;;;;;;;7.63;2.00;;;16.80;60.90;;;;;;5009986;28;20736;-76
2023/05/30 05:32:22;;;;;;;10.77;2.53;;;16.90;60.60;;;;;;5012296;28;20232;-76
2023/05/30 05:34:48;;;;;;;10.47;2.47;;;16.90;60.60;;;;;;5011409;28;20612;-76
2023/05/30 05:37:14;;;;;;;9.23;2.33;;;16.90;60.60;;;;;;4992926;28;20669;-76
2023/05/30 05:39:40;;;;;;;9.30;2.23;;;16.80;60.10;;;;;;5013116;28;20577;-76
2023/05/30 05:42:06;;;;;;;3.60;1.70;;;16.80;60.30;;;;;;4992838;28;20218;-76
2023/05/30 05:44:32;;;;;;;11.20;2.40;;;16.80;60.20;;;;;;5009939;28;20190;-76
2023/05/30 05:46:58;;;;;;;4.20;1.90;;;16.80;60.70;;;;;;5009166;28;20681;-76
2023/05/30 05:49:23;;;;;;;5.20;1.90;;;17.10;62.10;;;;;;5009844;28;20185;-77
2023/05/30 05:51:49;;;;;;;10.70;2.90;;;17.50;63.00;;;;;;5008939;28;20170;-76
2023/05/30 05:54:16;;;;;;;9.33;2.33;;;18.20;64.70;;;;;;5009888;28;20198;-75
2023/05/30 05:56:42;;;;;;;6.93;2.03;;;19.00;65.70;;;;;;4993327;28;20193;-76
2023/05/30 05:59:09;;;;;;;4.30;1.37;;;19.80;65.40;;;;;;5009372;28;20652;-77
2023/05/30 06:01:34;;;;;;;11.83;2.50;;;20.40;64.80;;;;;;5009401;28;20663;-76
2023/05/30 06:04:03;;;;;;;5.27;2.00;;;21.10;63.60;;;;;;4992949;28;20604;-76
2023/05/30 06:06:29;;;;;;;7.70;1.70;;;21.70;62.60;;;;;;5011153;28;20177;-76
2023/05/30 06:08:55;;;;;;;7.63;1.60;;;22.40;62.10;;;;;;5010611;28;20664;-76
2023/05/30 06:11:21;;;;;;;7.70;2.40;;;23.20;61.70;;;;;;5009510;28;20577;-76
2023/05/30 06:13:47;;;;;;;4.60;1.87;;;23.80;60.70;;;;;;5009585;28;20670;-76
2023/05/30 06:16:12;;;;;;;5.20;1.77;;;24.60;60.30;;;;;;5015157;28;20642;-76
2023/05/30 06:18:38;;;;;;;5.50;1.90;;;25.30;59.50;;;;;;5009536;28;20178;-76
2023/05/30 06:21:04;;;;;;;6.83;1.60;;;25.90;58.50;;;;;;4997201;28;20290;-76
2023/05/30 06:23:30;;;;;;;7.13;2.23;;;26.60;57.80;;;;;;5025896;28;20691;-77
2023/05/30 06:25:56;;;;;;;9.00;2.23;;;27.20;57.10;;;;;;5028770;28;20180;-76
2023/05/30 06:28:21;;;;;;;5.73;1.57;;;27.70;56.00;;;;;;5030316;28;20184;-77
2023/05/30 06:30:47;;;;;;;4.83;2.00;;;28.20;55.00;;;;;;5028803;28;20170;-77
2023/05/30 06:33:13;;;;;;;5.27;1.70;;;28.50;53.40;;;;;;5028909;28;20540;-77
2023/05/30 06:35:39;;;;;;;3.23;1.70;;;28.80;52.50;;;;;;5012640;28;20272;-77
2023/05/30 06:38:05;;;;;;;6.87;2.33;;;29.10;51.80;;;;;;5009140;28;20182;-77
2023/05/30 06:40:30;;;;;;;8.37;2.40;;;29.30;50.80;;;;;;4995381;28;21159;-77
2023/05/30 06:42:56;;;;;;;5.43;1.80;;;29.50;50.40;;;;;;5012291;28;20174;-77
2023/05/30 06:45:22;;;;;;;5.90;1.70;;;29.70;50.40;;;;;;5012941;28;20192;-77
2023/05/30 06:47:47;;;;;;;5.00;1.57;;;30.00;50.00;;;;;;4996122;28;20167;-77
2023/05/30 06:50:13;;;;;;;7.33;2.40;;;30.30;49.40;;;;;;4996418;28;20719;-77
2023/05/30 06:52:39;;;;;;;4.40;2.73;;;30.50;48.10;;;;;;5015950;28;20261;-77
2023/05/30 06:55:06;;;;;;;5.07;1.43;;;30.80;47.50;;;;;;5011556;28;20194;-77
2023/05/30 06:57:36;;;;;;;7.43;2.10;;;30.90;47.20;;;;;;5020406;28;20577;-76
2023/05/30 07:00:03;;;;;;;8.17;2.07;;;31.20;46.90;;;;;;5012715;28;20569;-77
2023/05/30 07:02:29;;;;;;;8.90;2.45;;;31.40;46.70;;;;;;5012873;28;20735;-76
2023/05/30 07:04:55;;;;;;;7.07;2.13;;;31.40;41.80;;;;;;5011608;28;20186;-76
2023/05/30 07:07:21;;;;;;;5.37;1.60;;;31.30;43.40;;;;;;5012201;28;20190;-76
2023/05/30 07:09:46;;;;;;;5.70;2.00;;;31.30;43.90;;;;;;5012636;28;20170;-76
2023/05/30 07:12:12;;;;;;;6.32;1.80;;;31.50;43.50;;;;;;5011203;28;21100;-76
2023/05/30 07:14:38;;;;;;;5.13;1.70;;;31.60;41.50;;;;;;5011792;28;20212;-77
2023/05/30 07:17:07;;;;;;;6.50;2.40;;;31.70;42.80;;;;;;5003050;28;20187;-77
2023/05/30 07:19:32;;;;;;;6.17;1.50;;;32.00;43.90;;;;;;5013447;28;20183;-76
2023/05/30 07:21:58;;;;;;;5.87;2.17;;;32.30;43.20;;;;;;5010892;28;20643;-76
2023/05/30 07:24:24;;;;;;;5.30;2.10;;;32.60;42.70;;;;;;5011590;28;20192;-76
2023/05/30 07:26:50;;;;;;;5.77;2.00;;;32.90;42.60;;;;;;5013132;28;20172;-76
2023/05/30 07:29:16;;;;;;;4.37;1.90;;;33.10;41.70;;;;;;5013055;28;20223;-77
2023/05/30 07:31:42;;;;;;;4.03;1.97;;;33.30;41.50;;;;;;5012619;28;20582;-77
2023/05/30 07:34:07;;;;;;;5.70;1.90;;;33.50;41.20;;;;;;4991887;28;20635;-77
2023/05/30 07:36:33;;;;;;;6.03;2.00;;;33.70;40.60;;;;;;4992253;28;20185;-76
2023/05/30 07:38:59;;;;;;;8.70;1.80;;;33.90;40.40;;;;;;5008219;28;20184;-78
2023/05/30 07:41:24;;;;;;;5.90;1.83;;;34.10;40.70;;;;;;5008204;28;20251;-76
2023/05/30 07:43:50;;;;;;;7.30;2.17;;;34.40;40.30;;;;;;4976137;28;20631;-77
2023/05/30 07:46:16;;;;;;;7.10;2.20;;;34.60;40.10;;;;;;4992027;28;20174;-77
2023/05/30 07:48:41;;;;;;;6.37;2.30;;;34.80;38.60;;;;;;4992222;28;20184;-77
2023/05/30 07:51:08;;;;;;;4.63;2.00;;;34.80;38.40;;;;;;4990605;28;20171;-77
2023/05/30 07:53:34;;;;;;;4.93;1.60;;;34.90;38.50;;;;;;4995497;28;20705;-77
2023/05/30 07:56:00;;;;;;;8.03;1.63;;;34.90;38.50;;;;;;5012401;28;20660;-76
2023/05/30 07:58:26;;;;;;;6.03;1.97;;;34.90;38.60;;;;;;5011717;28;20573;-77
2023/05/30 08:00:52;;;;;;;5.60;2.03;;;34.90;37.90;;;;;;5010696;28;20616;-77
2023/05/30 08:03:18;;;;;;;6.60;1.67;;;35.00;37.60;;;;;;5011520;28;20174;-77
2023/05/30 08:05:46;;;;;;;6.27;2.30;;;35.00;37.10;;;;;;5012783;28;20181;-76
2023/05/30 08:08:13;;;;;;;4.70;1.80;;;35.00;36.60;;;;;;5012268;28;20516;-76
2023/05/30 08:10:38;;;;;;;8.40;3.43;;;35.00;36.20;;;;;;5012259;28;21015;-76
2023/05/30 08:13:04;;;;;;;6.03;1.50;;;34.90;36.30;;;;;;5018624;28;20640;-76
2023/05/30 08:15:31;;;;;;;4.70;1.87;;;34.90;36.50;;;;;;5029389;28;20577;-76
2023/05/30 08:17:57;;;;;;;5.53;2.17;;;34.90;36.50;;;;;;5031879;28;20212;-76
2023/05/30 08:20:23;;;;;;;5.93;2.23;;;34.90;36.30;;;;;;5030776;28;20673;-76
2023/05/30 08:22:50;;;;;;;3.60;1.73;;;35.00;36.10;;;;;;5030531;28;20180;-76
2023/05/30 08:25:16;;;;;;;5.70;2.03;;;35.10;36.00;;;;;;5030557;28;20620;-76
2023/05/30 08:27:42;;;;;;;4.07;2.07;;;35.10;35.40;;;;;;4994694;28;20643;-76
2023/05/30 08:30:08;;;;;;;3.90;1.80;;;35.00;35.40;;;;;;5011660;28;20675;-76
2023/05/30 08:32:34;;;;;;;6.27;2.23;;;35.00;35.30;;;;;;5012165;28;20924;-76
2023/05/30 08:35:00;;;;;;;6.00;1.90;;;35.10;35.50;;;;;;5011427;28;20648;-76
2023/05/30 08:37:27;;;;;;;5.30;1.70;;;35.10;35.40;;;;;;5010957;28;20186;-76
2023/05/30 08:39:52;;;;;;;4.70;1.30;;;35.20;35.40;;;;;;5003970;28;20639;-76
2023/05/30 08:42:18;;;;;;;5.27;1.97;;;35.40;35.50;;;;;;5010458;28;20309;-76
2023/05/30 08:44:44;;;;;;;5.10;1.90;;;35.70;35.60;;;;;;5011267;28;21235;-76
2023/05/30 08:47:12;;;;;;;4.63;1.33;;;35.80;35.70;;;;;;5011187;28;20171;-76
2023/05/30 08:49:42;;;;;;;3.77;1.70;;;36.10;35.20;;;;;;5027023;28;20235;-76
2023/05/30 08:52:13;;;;;;;6.13;2.60;;;36.20;34.60;;;;;;5011180;28;20569;-77
2023/05/30 08:55:10;;;;;;;7.40;2.17;;;36.20;34.00;;;;;;5026798;28;20648;-77
2023/05/30 08:57:44;;;;;;;8.40;2.37;;;36.20;33.70;;;;;;4990132;28;20692;-77
2023/05/30 09:00:11;;;;;;;4.73;1.63;;;36.20;33.50;;;;;;4990550;28;20593;-78
2023/05/30 09:02:38;;;;;;;5.63;1.97;;;36.10;33.60;;;;;;4973748;28;20575;-77
2023/05/30 09:05:04;;;;;;;5.97;1.90;;;36.00;33.60;;;;;;4991943;28;20653;-77
2023/05/30 09:07:33;;;;;;;3.70;1.47;;;35.90;33.10;;;;;;4998563;28;20666;-77
2023/05/30 09:10:00;;;;;;;6.30;1.63;;;35.90;33.20;;;;;;4999520;28;20599;-77
2023/05/30 09:12:26;;;;;;;5.13;2.47;;;35.70;33.20;;;;;;4995713;28;20666;-77
2023/05/30 09:14:52;;;;;;;5.83;2.30;;;35.60;32.90;;;;;;5009250;28;20628;-77
2023/05/30 09:17:18;;;;;;;6.17;1.40;;;35.60;33.30;;;;;;5010010;28;20597;-77
2023/05/30 09:19:44;;;;;;;6.47;1.80;;;35.50;33.50;;;;;;5009701;28;20970;-76
2023/05/30 09:22:10;;;;;;;3.67;1.50;;;35.60;33.40;;;;;;5009791;28;20206;-77
2023/05/30 09:25:02;;;;;;;5.60;2.30;;;35.60;33.50;;;;;;4990181;28;20622;-77
2023/05/30 09:27:30;;;;;;;4.20;1.90;;;35.70;33.30;;;;;;4991173;28;20628;-78
2023/05/30 09:29:56;;;;;;;4.67;2.00;;;35.60;33.30;;;;;;4990225;28;20581;-77
2023/05/30 09:32:34;;;;;;;5.20;2.47;;;35.70;33.40;;;;;;5003335;28;21013;-76
2023/05/30 09:35:04;;;;;;;6.87;1.80;;;35.70;33.20;;;;;;5009660;28;20609;-76
2023/05/30 09:37:41;;;;;;;5.87;2.27;;;35.70;33.00;;;;;;5009263;28;20570;-77
2023/05/30 09:40:08;;;;;;;4.97;2.00;;;35.70;32.80;;;;;;5011164;28;20619;-76
2023/05/30 09:42:53;;;;;;;5.40;2.00;;;35.70;33.00;;;;;;5009058;28;20639;-76
2023/05/30 09:45:22;;;;;;;8.73;1.60;;;35.70;32.80;;;;;;5025777;28;20620;-76
2023/05/30 09:47:50;;;;;;;5.20;2.20;;;35.60;32.60;;;;;;5010972;28;20956;-76
2023/05/30 09:50:17;;;;;;;5.80;2.10;;;35.50;33.00;;;;;;5010751;28;20581;-76
2023/05/30 09:52:45;;;;;;;5.40;1.80;;;35.50;32.70;;;;;;4993400;28;20581;-76
2023/05/30 09:55:14;;;;;;;4.93;2.20;;;35.50;33.40;;;;;;5010651;28;20593;-77
2023/05/30 09:57:45;;;;;;;5.63;1.90;;;35.70;33.10;;;;;;5009703;28;20600;-77
2023/05/30 10:00:13;;;;;;;7.60;3.30;;;35.70;32.80;;;;;;5009199;28;20588;-76
2023/05/30 10:02:41;;;;;;;5.70;1.97;;;36.00;33.00;;;;;;5010946;28;20740;-76
2023/05/30 10:05:17;;;;;;;5.07;2.73;;;36.10;32.70;;;;;;5017098;28;20639;-76
2023/05/30 10:07:43;;;;;;;3.40;1.73;;;36.10;32.40;;;;;;5000847;28;20605;-77
2023/05/30 10:10:09;;;;;;;6.10;2.10;;;36.20;32.50;;;;;;5010741;28;20577;-77
2023/05/30 10:12:36;;;;;;;7.53;2.50;;;36.20;32.10;;;;;;5009029;28;20619;-76
2023/05/30 10:15:01;;;;;;;4.87;2.07;;;36.20;32.00;;;;;;5011510;28;20702;-76
2023/05/30 10:17:32;;;;;;;4.60;1.77;;;36.10;32.00;;;;;;5014128;28;20585;-76
2023/05/30 10:20:02;;;;;;;4.13;2.20;;;36.20;32.30;;;;;;5014283;28;20209;-76
2023/05/30 10:22:38;;;;;;;3.07;1.50;;;36.30;32.20;;;;;;5012589;28;20632;-77
2023/05/30 10:25:05;;;;;;;7.83;2.60;;;36.50;32.20;;;;;;5013666;28;20647;-77
2023/05/30 10:27:48;;;;;;;6.60;2.50;;;36.50;32.10;;;;;;5014216;28;20672;-77
2023/05/30 10:30:21;;;;;;;6.00;1.90;;;36.70;31.80;;;;;;5013675;28;20597;-76
2023/05/30 10:32:52;;;;;;;3.87;1.50;;;36.60;30.80;;;;;;5013661;28;20980;-76
2023/05/30 10:35:20;;;;;;;4.27;2.10;;;36.60;30.90;;;;;;5011955;28;20691;-76
2023/05/30 10:37:47;;;;;;;6.90;2.33;;;36.50;30.90;;;;;;5012905;28;20688;-76
2023/05/30 10:40:43;;;;;;;5.03;2.33;;;36.50;31.00;;;;;;5012966;28;20572;-76
2023/05/30 10:43:30;;;;;;;4.23;1.67;;;36.50;31.10;;;;;;5007646;28;20628;-76
2023/05/30 10:46:31;;;;;;;6.40;2.70;;;36.50;31.30;;;;;;4997774;28;21308;-76
2023/05/30 10:49:26;;;;;;;4.50;1.57;;;36.40;30.60;;;;;;4977867;28;21027;-77
2023/05/30 10:52:05;;;;;;;6.13;2.20;;;36.10;30.40;;;;;;4996373;28;20703;-77
2023/05/30 10:54:36;;;;;;;5.30;1.80;;;35.70;29.70;;;;;;4992890;28;20624;-78
2023/05/30 10:57:26;;;;;;;5.57;2.50;;;35.50;30.10;;;;;;5009731;28;21039;-77
2023/05/30 11:00:22;;;;;;;4.47;1.87;;;35.10;30.00;;;;;;5001362;28;20639;-76
2023/05/30 11:02:51;;;;;;;6.50;3.03;;;34.80;30.50;;;;;;5000911;28;20681;-76
2023/05/30 11:05:27;;;;;;;5.90;2.03;;;34.70;30.80;;;;;;5008636;28;20942;-76
2023/05/30 11:07:52;;;;;;;6.80;2.43;;;34.50;30.50;;;;;;5003910;28;20583;-77
2023/05/30 11:10:32;;;;;;;6.00;2.93;;;34.30;30.20;;;;;;5016533;28;21171;-76
2023/05/30 11:13:09;;;;;;;5.37;2.40;;;34.10;30.30;;;;;;5011928;28;20707;-77
2023/05/30 11:15:36;;;;;;;6.80;1.97;;;33.90;30.50;;;;;;5008289;28;21200;-76
2023/05/30 11:18:17;;;;;;;4.30;2.43;;;33.70;30.80;;;;;;5011968;28;20960;-76
2023/05/30 11:20:54;;;;;;;3.60;2.40;;;33.60;31.20;;;;;;5010555;28;20615;-77
2023/05/30 11:23:21;;;;;;;3.47;1.87;;;33.50;31.50;;;;;;5011629;28;20590;-76
2023/05/30 11:25:47;;;;;;;4.17;2.17;;;33.50;31.40;;;;;;5010412;28;20636;-76
2023/05/30 11:28:15;;;;;;;4.20;1.87;;;33.40;31.40;;;;;;5010932;28;20596;-76
2023/05/30 11:30:48;;;;;;;6.77;2.10;;;33.40;31.10;;;;;;5011390;28;20215;-76
2023/05/30 11:33:16;;;;;;;5.00;1.70;;;33.30;30.40;;;;;;5011958;28;20683;-76
2023/05/30 11:35:47;;;;;;;4.93;2.33;;;33.30;30.40;;;;;;5011275;28;20623;-75
2023/05/30 11:38:21;;;;;;;5.93;2.13;;;33.10;30.20;;;;;;5012526;28;21147;-76
2023/05/30 11:40:47;;;;;;;4.07;1.83;;;32.90;30.00;;;;;;5011524;28;20630;-76
2023/05/30 11:43:16;;;;;;;3.77;1.90;;;32.60;30.00;;;;;;5011203;28;20582;-76
2023/05/30 11:45:46;;;;;;;5.63;2.43;;;32.40;30.20;;;;;;5010640;28;20625;-76
2023/05/30 11:48:12;;;;;;;4.03;1.47;;;32.20;30.10;;;;;;5018946;28;20605;-76
2023/05/30 11:50:42;;;;;;;5.07;2.13;;;32.00;30.30;;;;;;5027121;28;20962;-77
2023/05/30 11:53:15;;;;;;;4.27;2.00;;;31.90;30.30;;;;;;5012500;28;20635;-77
2023/05/30 11:55:48;;;;;;;4.17;1.50;;;31.60;30.30;;;;;;5010803;28;20643;-78
2023/05/30 11:58:18;;;;;;;4.10;2.07;;;31.30;30.20;;;;;;5011064;28;20715;-76
2023/05/30 12:00:44;;;;;;;3.60;1.80;;;31.10;30.10;;;;;;5010450;28;20641;-75
2023/05/30 12:03:16;;;;;;;6.07;1.73;;;30.90;30.10;;;;;;5010423;28;20601;-77
2023/05/30 12:05:42;;;;;;;3.87;1.43;;;30.60;30.00;;;;;;5010753;28;20609;-76
2023/05/30 12:08:08;;;;;;;5.17;1.80;;;30.40;30.20;;;;;;5011805;28;21008;-74
2023/05/30 12:10:34;;;;;;;4.57;1.90;;;30.30;30.60;;;;;;5010857;28;20616;-75
2023/05/30 12:13:00;;;;;;;3.97;2.00;;;30.30;30.70;;;;;;5009595;28;20548;-75
2023/05/30 12:15:27;;;;;;;6.07;1.87;;;30.20;30.50;;;;;;5006512;28;20627;-75
2023/05/30 12:17:53;;;;;;;6.47;2.83;;;30.10;30.20;;;;;;5012000;28;20608;-75
2023/05/30 12:20:20;;;;;;;5.70;1.63;;;30.00;30.30;;;;;;5011341;28;20209;-75
2023/05/30 12:22:47;;;;;;;6.73;2.10;;;29.90;30.20;;;;;;5010704;28;20589;-76
2023/05/30 12:25:13;;;;;;;3.73;1.70;;;29.90;30.40;;;;;;5012706;28;21004;-75
2023/05/30 12:27:48;;;;;;;5.83;1.70;;;29.80;30.00;;;;;;5011823;28;20573;-75
2023/05/30 12:30:16;;;;;;;5.40;2.77;;;29.60;29.80;;;;;;5010138;28;20581;-76
2023/05/30 12:32:44;;;;;;;6.37;2.20;;;29.50;30.00;;;;;;5009123;28;20601;-75
2023/05/30 12:35:12;;;;;;;7.67;1.90;;;29.40;30.00;;;;;;4993832;28;20660;-75
2023/05/30 12:37:37;;;;;;;4.70;2.40;;;29.20;30.00;;;;;;5010883;28;20576;-75
2023/05/30 12:40:05;;;;;;;6.30;3.13;;;29.10;30.10;;;;;;5011566;28;20584;-75
2023/05/30 12:42:32;;;;;;;6.73;2.73;;;28.90;30.00;;;;;;5009570;28;20226;-75
2023/05/30 12:45:05;;;;;;;3.80;1.70;;;28.60;29.90;;;;;;5011733;28;20616;-75
2023/05/30 12:47:31;;;;;;;4.30;2.10;;;28.40;29.90;;;;;;4994102;28;20581;-75
2023/05/30 12:49:57;;;;;;;6.57;2.80;;;28.20;29.80;;;;;;5009596;28;20612;-76
2023/05/30 12:52:25;;;;;;;5.00;2.60;;;27.90;30.00;;;;;;5004188;28;20708;-75